Albany, Texas
Current Conditions -  °F | °C
As of 9:35 PM on Sunday 21 Dec 2014 (Local Time) from KBKD Reporting Station
Clear Clear  
Wind Chill: 54°   Ceiling: Unl
Heat Index: 54°   Visibility: 7mi
Dew Point: 44°   Wind: 17mph
Humidity: 69%   Direction: 190°S
Pressure: 29.69"   Gusts: NA
Location:  32.72°N, 99.3°W
Report Text: KBKD 220335Z AUTO 19015KT 7SM CLR 12/07 A2969 RMK AO2 T01220066
Loading
Personal Weather Stations






























Interactive Weather Map New forecast layout! Learn more

10-Day Weather Forecast

Advertisements
Track Severe Weather on mobile